Time;durP1;ratioP1;P1;durP2;ratioP2;P2;SDS_P1;SDS_P2;PMS_P1;PMS_P2;Temp;Humidity;BMP_temperature;BMP_pressure;BME280_temperature;BME280_humidity;BME280_pressure;Samples;Min_cycle;Max_cycle;Signal;HPM_P1;HPM_P2
2023/08/15 00:01:10;;;;;;;5.90;3.90;;;;;;;;;;5036024;28;20088;-64
2023/08/15 00:03:35;;;;;;;7.38;4.45;;;;;;;;;;5035772;28;20022;-66
2023/08/15 00:06:01;;;;;;;6.50;3.80;;;;;;;;;;5035900;28;20021;-67
2023/08/15 00:08:26;;;;;;;11.07;3.55;;;;;;;;;;5035937;28;20026;-68
2023/08/15 00:10:52;;;;;;;7.75;3.70;;;;;;;;;;5035793;28;20079;-67
2023/08/15 00:13:17;;;;;;;8.32;3.80;;;;;;;;;;5035746;28;20037;-67
2023/08/15 00:15:43;;;;;;;5.35;3.78;;;;;;;;;;5035727;28;20044;-67
2023/08/15 00:18:08;;;;;;;6.95;3.80;;;;;;;;;;5035368;28;20029;-64
2023/08/15 00:23:09;;;;;;;11.90;3.38;;;;;;;;;;5638092;23;20058;-67
2023/08/15 00:25:34;;;;;;;6.38;3.70;;;;;;;;;;4976333;28;20078;-67
2023/08/15 00:27:59;;;;;;;7.38;3.78;;;;;;;;;;4976352;28;20097;-66
2023/08/15 00:30:25;;;;;;;6.18;3.78;;;;;;;;;;4975306;28;20546;-68
2023/08/15 00:32:50;;;;;;;5.82;3.85;;;;;;;;;;4976368;28;20038;-67
2023/08/15 00:35:16;;;;;;;9.85;5.20;;;;;;;;;;4976660;28;20496;-67
2023/08/15 00:37:41;;;;;;;14.15;9.60;;;;;;;;;;4976372;28;20547;-68
2023/08/15 00:40:07;;;;;;;8.88;5.07;;;;;;;;;;4976416;28;20356;-63
2023/08/15 00:42:32;;;;;;;9.38;4.32;;;;;;;;;;4976402;28;20495;-66
2023/08/15 00:44:58;;;;;;;9.68;4.28;;;;;;;;;;4976260;28;20026;-67
2023/08/15 00:47:24;;;;;;;9.80;4.45;;;;;;;;;;4976138;28;20025;-67
2023/08/15 00:49:50;;;;;;;9.43;4.25;;;;;;;;;;4976261;28;20039;-68
2023/08/15 00:52:17;;;;;;;6.03;3.80;;;;;;;;;;4976084;28;20031;-66
2023/08/15 00:54:46;;;;;;;6.68;4.13;;;;;;;;;;4975662;28;20023;-66
2023/08/15 00:57:12;;;;;;;8.67;4.90;;;;;;;;;;4975954;28;20479;-68
2023/08/15 00:59:37;;;;;;;11.63;3.80;;;;;;;;;;4976061;28;20058;-65
2023/08/15 01:02:03;;;;;;;6.05;3.28;;;;;;;;;;4976063;28;20019;-67
2023/08/15 01:04:30;;;;;;;8.05;3.40;;;;;;;;;;4976075;28;20538;-67
2023/08/15 01:06:56;;;;;;;4.55;3.00;;;;;;;;;;4975838;28;20106;-68
2023/08/15 01:09:21;;;;;;;5.15;3.25;;;;;;;;;;4975998;28;20150;-63
2023/08/15 01:12:16;;;;;;;4.30;2.92;;;;;;;;;;4975962;28;20464;-66
2023/08/15 01:14:51;;;;;;;6.82;3.00;;;;;;;;;;4975933;28;20035;-63
2023/08/15 01:17:24;;;;;;;4.97;2.72;;;;;;;;;;4975987;28;20023;-68
2023/08/15 01:19:52;;;;;;;6.68;3.10;;;;;;;;;;4975764;28;20023;-62
2023/08/15 01:22:24;;;;;;;10.85;2.42;;;;;;;;;;4974072;28;20062;-62
2023/08/15 01:24:50;;;;;;;5.00;2.70;;;;;;;;;;4975431;28;20053;-66
2023/08/15 01:27:15;;;;;;;4.70;2.92;;;;;;;;;;4975641;28;20031;-63
2023/08/15 01:29:41;;;;;;;5.70;2.30;;;;;;;;;;4975544;28;20118;-63
2023/08/15 01:32:30;;;;;;;3.50;2.30;;;;;;;;;;4975524;28;20034;-63
2023/08/15 01:35:02;;;;;;;4.47;2.80;;;;;;;;;;4975286;28;20122;-63
2023/08/15 01:37:29;;;;;;;5.57;3.17;;;;;;;;;;4975596;28;20031;-65
2023/08/15 01:39:57;;;;;;;4.38;2.85;;;;;;;;;;4975407;28;20041;-64
2023/08/15 01:42:23;;;;;;;4.22;2.90;;;;;;;;;;4975259;28;20029;-67
2023/08/15 01:44:50;;;;;;;5.80;3.20;;;;;;;;;;4975221;28;20027;-64
2023/08/15 01:47:15;;;;;;;7.90;3.25;;;;;;;;;;4975423;28;20038;-66
2023/08/15 01:49:41;;;;;;;6.45;3.50;;;;;;;;;;4975157;28;20031;-63
2023/08/15 01:52:06;;;;;;;5.50;3.60;;;;;;;;;;4975138;28;20034;-63
2023/08/15 01:54:32;;;;;;;8.43;3.35;;;;;;;;;;4975266;28;20030;-65
2023/08/15 01:56:57;;;;;;;6.63;3.83;;;;;;;;;;4974933;28;20110;-64
2023/08/15 01:59:23;;;;;;;5.60;3.30;;;;;;;;;;4975288;28;20034;-66
2023/08/15 02:01:48;;;;;;;7.15;3.50;;;;;;;;;;4974984;28;20391;-64
2023/08/15 02:04:14;;;;;;;7.47;3.20;;;;;;;;;;4974682;28;20029;-64
2023/08/15 02:06:39;;;;;;;6.28;3.88;;;;;;;;;;4974042;28;20031;-62
2023/08/15 02:09:05;;;;;;;4.38;3.58;;;;;;;;;;4974797;28;20038;-63
2023/08/15 02:11:30;;;;;;;5.93;3.97;;;;;;;;;;4974855;28;20035;-65
2023/08/15 02:13:56;;;;;;;5.75;4.13;;;;;;;;;;4974848;28;20023;-63
2023/08/15 02:16:22;;;;;;;8.57;4.43;;;;;;;;;;4974704;28;20480;-65
2023/08/15 02:18:48;;;;;;;6.75;4.53;;;;;;;;;;4974495;28;20038;-65
2023/08/15 02:21:13;;;;;;;7.18;4.53;;;;;;;;;;4974759;28;20058;-68
2023/08/15 02:23:38;;;;;;;6.97;4.43;;;;;;;;;;4974424;28;20403;-66
2023/08/15 02:26:04;;;;;;;6.93;4.60;;;;;;;;;;4974484;28;20031;-64
2023/08/15 02:28:31;;;;;;;7.43;4.05;;;;;;;;;;4974606;28;20106;-65
2023/08/15 02:30:56;;;;;;;7.97;3.60;;;;;;;;;;4974410;28;20026;-64
2023/08/15 02:33:22;;;;;;;8.15;3.35;;;;;;;;;;4974356;28;20082;-64
2023/08/15 02:35:49;;;;;;;5.63;2.72;;;;;;;;;;4974365;28;20101;-65
2023/08/15 02:38:15;;;;;;;3.22;2.28;;;;;;;;;;4974382;28;20027;-66
2023/08/15 02:40:42;;;;;;;6.95;2.58;;;;;;;;;;4974481;28;20397;-62
2023/08/15 02:43:08;;;;;;;6.07;3.03;;;;;;;;;;4974196;28;20065;-63
2023/08/15 02:45:33;;;;;;;7.72;3.60;;;;;;;;;;4974205;28;20046;-62
2023/08/15 02:47:58;;;;;;;7.68;3.50;;;;;;;;;;4974076;28;20023;-64
2023/08/15 02:50:24;;;;;;;5.38;3.17;;;;;;;;;;4972859;28;20022;-65
2023/08/15 02:52:50;;;;;;;4.90;3.33;;;;;;;;;;4974129;28;20106;-65
2023/08/15 02:55:15;;;;;;;6.97;3.53;;;;;;;;;;4974102;28;20117;-63
2023/08/15 02:57:40;;;;;;;6.45;3.78;;;;;;;;;;4974148;28;20027;-67
2023/08/15 03:00:07;;;;;;;5.90;3.42;;;;;;;;;;4972893;28;20033;-65
2023/08/15 03:02:33;;;;;;;6.05;3.35;;;;;;;;;;4973817;28;20106;-69
2023/08/15 03:04:59;;;;;;;6.20;4.05;;;;;;;;;;4973966;28;20058;-70
2023/08/15 03:07:24;;;;;;;7.43;4.20;;;;;;;;;;4974060;28;20066;-69
2023/08/15 03:09:50;;;;;;;6.72;3.70;;;;;;;;;;4973955;28;20027;-65
2023/08/15 03:12:15;;;;;;;8.55;3.63;;;;;;;;;;4973936;28;20030;-64
2023/08/15 03:14:40;;;;;;;6.95;3.50;;;;;;;;;;4974191;28;20050;-71
2023/08/15 03:17:07;;;;;;;6.05;3.38;;;;;;;;;;4973825;28;20476;-71
2023/08/15 03:19:33;;;;;;;7.35;3.90;;;;;;;;;;4977736;28;20435;-71
2023/08/15 03:21:58;;;;;;;5.38;3.22;;;;;;;;;;4977939;28;20030;-71
2023/08/15 03:24:27;;;;;;;5.53;3.05;;;;;;;;;;4977539;28;20039;-72
2023/08/15 03:26:53;;;;;;;7.05;3.03;;;;;;;;;;4978012;28;20054;-71
2023/08/15 03:29:18;;;;;;;6.45;3.10;;;;;;;;;;4977937;28;20460;-71
2023/08/15 03:31:43;;;;;;;4.53;2.80;;;;;;;;;;4977569;28;20046;-71
2023/08/15 03:34:09;;;;;;;5.72;2.75;;;;;;;;;;4977736;28;20050;-71
2023/08/15 03:36:34;;;;;;;5.18;2.40;;;;;;;;;;4977821;28;20038;-71
2023/08/15 03:39:00;;;;;;;5.53;2.35;;;;;;;;;;4977584;28;20023;-71
2023/08/15 03:41:25;;;;;;;3.70;2.45;;;;;;;;;;4977625;28;20106;-69
2023/08/15 03:43:51;;;;;;;3.72;2.20;;;;;;;;;;4977512;28;20031;-71
2023/08/15 03:46:16;;;;;;;4.30;2.38;;;;;;;;;;4977253;28;20039;-71
2023/08/15 03:48:41;;;;;;;4.38;2.42;;;;;;;;;;4977377;28;20050;-70
2023/08/15 03:51:07;;;;;;;6.07;2.70;;;;;;;;;;4977521;28;20026;-70
2023/08/15 03:53:33;;;;;;;3.83;2.50;;;;;;;;;;4977252;28;20511;-72
2023/08/15 03:55:58;;;;;;;5.13;2.72;;;;;;;;;;4977386;28;20495;-71
2023/08/15 03:58:24;;;;;;;6.25;3.00;;;;;;;;;;4977284;28;20022;-71
2023/08/15 04:00:50;;;;;;;6.63;3.22;;;;;;;;;;4977134;28;20023;-70
2023/08/15 04:03:16;;;;;;;7.28;3.63;;;;;;;;;;4977236;28;20439;-66
2023/08/15 04:05:45;;;;;;;7.32;3.55;;;;;;;;;;4977333;28;20027;-71
2023/08/15 04:08:11;;;;;;;6.15;3.33;;;;;;;;;;4977036;28;20027;-68
2023/08/15 04:10:39;;;;;;;5.00;3.38;;;;;;;;;;4977232;28;20027;-71
2023/08/15 04:13:07;;;;;;;5.93;3.25;;;;;;;;;;4976973;28;20046;-71
2023/08/15 04:15:34;;;;;;;5.60;3.20;;;;;;;;;;4976791;28;20493;-68
2023/08/15 04:18:00;;;;;;;6.90;3.30;;;;;;;;;;4977022;28;20023;-68
2023/08/15 04:20:26;;;;;;;5.70;2.70;;;;;;;;;;4976945;28;20050;-71
2023/08/15 04:22:51;;;;;;;4.88;2.70;;;;;;;;;;4976936;28;20046;-71
2023/08/15 04:25:17;;;;;;;4.97;2.72;;;;;;;;;;4976776;28;20546;-71
2023/08/15 04:27:42;;;;;;;4.65;2.78;;;;;;;;;;4976949;28;20142;-71
2023/08/15 04:30:08;;;;;;;5.80;2.80;;;;;;;;;;4974123;28;20364;-70
2023/08/15 04:32:34;;;;;;;3.38;2.60;;;;;;;;;;4976704;28;20023;-68
2023/08/15 04:34:59;;;;;;;3.70;2.22;;;;;;;;;;4976681;28;20089;-68
2023/08/15 04:37:25;;;;;;;4.28;2.72;;;;;;;;;;4976678;28;20034;-68
2023/08/15 04:39:50;;;;;;;4.97;2.60;;;;;;;;;;4976643;28;20046;-68
2023/08/15 04:42:16;;;;;;;3.67;2.75;;;;;;;;;;4976370;28;20030;-68
2023/08/15 04:44:41;;;;;;;5.25;2.70;;;;;;;;;;4976415;28;20031;-66
2023/08/15 04:47:07;;;;;;;4.60;3.00;;;;;;;;;;4976373;28;20077;-69
2023/08/15 04:49:33;;;;;;;4.88;2.72;;;;;;;;;;4976452;28;20026;-69
2023/08/15 04:52:00;;;;;;;4.68;3.15;;;;;;;;;;4976565;28;20030;-70
2023/08/15 04:54:25;;;;;;;5.60;2.78;;;;;;;;;;4976230;28;20035;-70
2023/08/15 04:56:50;;;;;;;5.75;3.10;;;;;;;;;;4976305;28;20507;-70
2023/08/15 04:59:17;;;;;;;4.63;2.85;;;;;;;;;;4976073;28;20033;-70
2023/08/15 05:01:43;;;;;;;3.83;2.75;;;;;;;;;;4974997;28;20117;-68
2023/08/15 05:04:08;;;;;;;4.93;3.08;;;;;;;;;;4976231;28;20054;-70
2023/08/15 05:06:34;;;;;;;4.63;3.08;;;;;;;;;;4976176;28;20031;-69
2023/08/15 05:08:59;;;;;;;5.10;3.00;;;;;;;;;;4976090;28;20022;-70
2023/08/15 05:11:24;;;;;;;5.90;3.03;;;;;;;;;;4975980;28;20046;-71
2023/08/15 05:13:50;;;;;;;6.32;3.20;;;;;;;;;;4975738;28;20027;-70
2023/08/15 05:16:15;;;;;;;6.00;2.97;;;;;;;;;;4976061;28;20041;-70
2023/08/15 05:18:42;;;;;;;4.18;2.72;;;;;;;;;;4975960;28;20436;-71
2023/08/15 05:21:07;;;;;;;4.53;3.05;;;;;;;;;;4975773;28;20054;-71
2023/08/15 05:23:33;;;;;;;5.93;3.53;;;;;;;;;;4975435;28;20455;-70
2023/08/15 05:25:58;;;;;;;3.80;2.75;;;;;;;;;;4975661;28;20090;-70
2023/08/15 05:28:23;;;;;;;5.70;3.22;;;;;;;;;;4975432;28;20357;-71
2023/08/15 05:30:49;;;;;;;5.57;3.20;;;;;;;;;;4975569;28;20034;-70
2023/08/15 05:33:14;;;;;;;6.28;3.28;;;;;;;;;;4975671;28;20033;-70
2023/08/15 05:35:40;;;;;;;4.82;3.15;;;;;;;;;;4975622;28;20027;-70
2023/08/15 05:38:05;;;;;;;6.45;2.83;;;;;;;;;;4975512;28;20150;-71
2023/08/15 05:40:32;;;;;;;4.82;2.80;;;;;;;;;;4975244;28;20031;-70
2023/08/15 05:42:58;;;;;;;4.38;2.92;;;;;;;;;;4975174;28;20026;-71
2023/08/15 05:45:24;;;;;;;5.75;3.25;;;;;;;;;;4975448;28;20033;-70
2023/08/15 05:47:49;;;;;;;3.70;2.90;;;;;;;;;;4975099;28;20476;-70
2023/08/15 05:50:15;;;;;;;5.78;3.10;;;;;;;;;;4975166;28;20030;-71
2023/08/15 05:52:40;;;;;;;5.80;3.15;;;;;;;;;;4975180;28;20058;-67
2023/08/15 05:55:06;;;;;;;4.57;3.20;;;;;;;;;;4975190;28;20042;-67
2023/08/15 05:57:31;;;;;;;5.40;3.35;;;;;;;;;;4973674;28;20034;-65
2023/08/15 05:59:57;;;;;;;5.82;3.38;;;;;;;;;;4975118;28;20122;-71
2023/08/15 06:02:22;;;;;;;9.88;3.65;;;;;;;;;;4975002;28;20383;-70
2023/08/15 06:04:48;;;;;;;5.20;3.50;;;;;;;;;;4974944;28;20089;-69
2023/08/15 06:07:13;;;;;;;6.28;3.33;;;;;;;;;;4974916;28;20031;-69
2023/08/15 06:09:39;;;;;;;7.00;3.67;;;;;;;;;;4974765;28;20039;-73
2023/08/15 06:12:05;;;;;;;4.78;3.80;;;;;;;;;;4974759;28;20038;-68
2023/08/15 06:14:31;;;;;;;5.55;3.53;;;;;;;;;;4974926;28;20034;-71
2023/08/15 06:16:57;;;;;;;4.97;3.08;;;;;;;;;;4974914;28;20066;-69
2023/08/15 06:19:22;;;;;;;3.70;3.00;;;;;;;;;;4974688;28;20026;-69
2023/08/15 06:21:48;;;;;;;4.50;3.30;;;;;;;;;;4974681;28;20166;-70
2023/08/15 06:24:13;;;;;;;4.80;2.83;;;;;;;;;;4974304;28;20047;-62
2023/08/15 06:26:39;;;;;;;5.13;3.00;;;;;;;;;;4974407;28;20035;-69
2023/08/15 06:29:05;;;;;;;5.25;3.10;;;;;;;;;;4974505;28;20392;-70
2023/08/15 06:31:35;;;;;;;3.67;2.63;;;;;;;;;;4974621;28;20356;-68
2023/08/15 06:34:02;;;;;;;4.22;2.70;;;;;;;;;;4968215;28;20429;-70
2023/08/15 06:36:28;;;;;;;5.30;2.58;;;;;;;;;;4971378;28;20082;-66
2023/08/15 06:38:54;;;;;;;5.75;2.70;;;;;;;;;;4974323;28;20082;-61
2023/08/15 06:41:19;;;;;;;3.83;2.78;;;;;;;;;;4968773;28;20022;-66
2023/08/15 06:43:44;;;;;;;4.10;2.72;;;;;;;;;;4986452;28;20026;-68
2023/08/15 06:46:14;;;;;;;4.68;2.80;;;;;;;;;;4977922;28;20158;-70
2023/08/15 06:48:39;;;;;;;3.70;2.50;;;;;;;;;;4977174;28;20031;-67
2023/08/15 06:51:05;;;;;;;4.22;2.63;;;;;;;;;;4979359;28;20077;-63
2023/08/15 06:53:31;;;;;;;5.32;2.40;;;;;;;;;;4977098;28;20395;-62
2023/08/15 06:55:56;;;;;;;5.35;2.72;;;;;;;;;;4973149;28;20042;-70
2023/08/15 06:58:22;;;;;;;3.30;2.58;;;;;;;;;;4967547;28;20018;-67
2023/08/15 07:00:48;;;;;;;5.40;2.50;;;;;;;;;;4993155;28;20025;-71
2023/08/15 07:03:15;;;;;;;4.82;2.83;;;;;;;;;;4993412;28;20109;-64
2023/08/15 07:05:41;;;;;;;5.78;2.50;;;;;;;;;;4982686;28;20023;-64
2023/08/15 07:08:07;;;;;;;3.08;2.13;;;;;;;;;;4973829;28;20033;-71
2023/08/15 07:10:34;;;;;;;6.30;1.88;;;;;;;;;;4973560;28;20027;-68
2023/08/15 07:12:59;;;;;;;3.20;2.00;;;;;;;;;;4973655;28;20023;-70
2023/08/15 07:15:25;;;;;;;2.70;1.58;;;;;;;;;;4973601;28;20033;-68
2023/08/15 07:17:50;;;;;;;3.88;1.90;;;;;;;;;;4984746;28;20051;-70
2023/08/15 07:20:16;;;;;;;4.15;1.70;;;;;;;;;;4972410;28;20361;-67
2023/08/15 07:22:41;;;;;;;2.67;1.50;;;;;;;;;;4963764;28;20039;-70
2023/08/15 07:25:07;;;;;;;2.47;1.70;;;;;;;;;;4963031;28;20066;-69
2023/08/15 07:27:33;;;;;;;3.33;1.88;;;;;;;;;;4973429;28;20033;-68
2023/08/15 07:29:58;;;;;;;3.95;1.80;;;;;;;;;;4973353;28;20031;-69
2023/08/15 07:32:26;;;;;;;2.63;1.48;;;;;;;;;;4973481;28;20502;-67
2023/08/15 07:34:52;;;;;;;3.28;1.85;;;;;;;;;;4976903;28;20045;-68
2023/08/15 07:37:17;;;;;;;3.78;1.90;;;;;;;;;;4992781;28;20027;-62
2023/08/15 07:39:42;;;;;;;3.80;1.92;;;;;;;;;;4992688;28;20026;-68
2023/08/15 07:42:08;;;;;;;3.20;1.60;;;;;;;;;;4992860;28;20026;-67
2023/08/15 07:44:33;;;;;;;3.08;1.60;;;;;;;;;;4973321;28;20031;-70
2023/08/15 07:46:59;;;;;;;4.05;1.95;;;;;;;;;;4973625;28;20487;-70
2023/08/15 07:49:24;;;;;;;2.00;1.55;;;;;;;;;;4972997;28;20030;-67
2023/08/15 07:51:49;;;;;;;3.67;1.95;;;;;;;;;;4990206;28;20038;-64
2023/08/15 07:54:15;;;;;;;4.38;1.63;;;;;;;;;;4992755;28;20027;-64
2023/08/15 07:56:40;;;;;;;3.97;1.95;;;;;;;;;;4984153;28;20441;-66
2023/08/15 07:59:06;;;;;;;4.22;2.00;;;;;;;;;;4973360;28;20031;-67
2023/08/15 08:01:31;;;;;;;2.65;1.70;;;;;;;;;;4973244;28;20038;-67
2023/08/15 08:03:57;;;;;;;3.45;1.80;;;;;;;;;;4974275;28;20035;-64
2023/08/15 08:06:22;;;;;;;3.47;1.90;;;;;;;;;;4976765;28;20041;-65
2023/08/15 08:08:48;;;;;;;3.22;1.83;;;;;;;;;;4976789;28;20077;-63
2023/08/15 08:11:13;;;;;;;5.40;2.10;;;;;;;;;;4976893;28;20034;-62
2023/08/15 08:13:39;;;;;;;3.90;2.10;;;;;;;;;;4976628;28;20030;-65
2023/08/15 08:16:04;;;;;;;2.65;1.40;;;;;;;;;;4976624;28;20432;-69
2023/08/15 08:18:30;;;;;;;2.80;1.75;;;;;;;;;;4976559;28;20022;-65
2023/08/15 08:20:55;;;;;;;2.75;1.90;;;;;;;;;;4976549;28;20042;-68
2023/08/15 08:23:21;;;;;;;3.60;2.03;;;;;;;;;;4976375;28;20043;-69
2023/08/15 08:25:46;;;;;;;5.25;2.15;;;;;;;;;;4976187;28;20035;-67
2023/08/15 08:28:13;;;;;;;4.18;2.15;;;;;;;;;;4976614;28;20022;-67
2023/08/15 08:30:38;;;;;;;3.78;2.10;;;;;;;;;;4976465;28;20065;-67
2023/08/15 08:33:04;;;;;;;2.72;1.80;;;;;;;;;;4976481;28;20027;-67
2023/08/15 08:35:29;;;;;;;3.67;2.05;;;;;;;;;;4984761;28;20018;-65
2023/08/15 08:37:55;;;;;;;4.25;2.10;;;;;;;;;;4995775;28;20027;-65
2023/08/15 08:40:21;;;;;;;4.10;1.90;;;;;;;;;;4995798;28;20096;-68
2023/08/15 08:42:46;;;;;;;5.45;2.03;;;;;;;;;;4995684;28;20049;-65
2023/08/15 08:45:13;;;;;;;4.53;1.95;;;;;;;;;;4977559;28;20476;-67
2023/08/15 08:47:39;;;;;;;3.35;2.00;;;;;;;;;;4975983;28;20027;-66
2023/08/15 08:50:09;;;;;;;3.65;1.83;;;;;;;;;;4979192;28;20471;-61
2023/08/15 08:52:39;;;;;;;2.50;2.00;;;;;;;;;;4995618;28;20468;-68
2023/08/15 08:55:05;;;;;;;3.10;2.10;;;;;;;;;;4995454;28;20048;-63
2023/08/15 08:57:32;;;;;;;3.03;1.80;;;;;;;;;;4980174;28;20549;-65
2023/08/15 09:00:00;;;;;;;2.25;1.70;;;;;;;;;;4975883;28;20105;-67
2023/08/15 09:02:26;;;;;;;2.95;2.00;;;;;;;;;;4975920;28;20117;-67
2023/08/15 09:04:54;;;;;;;2.70;1.90;;;;;;;;;;4975627;28;20098;-61
2023/08/15 09:07:20;;;;;;;3.08;2.13;;;;;;;;;;4974607;28;20034;-62
2023/08/15 09:09:45;;;;;;;3.58;1.90;;;;;;;;;;4975583;28;20107;-66
2023/08/15 09:12:31;;;;;;;6.10;1.98;;;;;;;;;;4975671;28;20460;-68
2023/08/15 09:14:57;;;;;;;2.67;1.90;;;;;;;;;;4975576;28;20106;-67
2023/08/15 09:17:26;;;;;;;3.33;1.73;;;;;;;;;;4975490;28;20106;-66
2023/08/15 09:19:51;;;;;;;3.10;1.80;;;;;;;;;;4975170;28;20026;-67
2023/08/15 09:22:24;;;;;;;2.85;1.88;;;;;;;;;;4994744;28;20173;-61
2023/08/15 09:24:50;;;;;;;4.97;1.92;;;;;;;;;;4987847;28;20081;-61
2023/08/15 09:27:17;;;;;;;5.03;1.73;;;;;;;;;;4975169;28;20023;-65
2023/08/15 09:29:42;;;;;;;1.75;1.50;;;;;;;;;;4974915;28;20173;-66
2023/08/15 09:32:08;;;;;;;2.85;1.83;;;;;;;;;;4975223;28;20102;-65
2023/08/15 09:34:33;;;;;;;3.58;1.95;;;;;;;;;;4976147;28;20039;-62
2023/08/15 09:36:59;;;;;;;2.40;1.73;;;;;;;;;;4994620;28;20169;-62
2023/08/15 09:39:24;;;;;;;3.40;1.80;;;;;;;;;;4994550;28;20030;-66
2023/08/15 09:41:52;;;;;;;2.67;1.92;;;;;;;;;;4994452;28;20034;-63
2023/08/15 09:44:37;;;;;;;4.07;2.05;;;;;;;;;;4983993;28;20117;-61
2023/08/15 09:47:04;;;;;;;3.35;2.13;;;;;;;;;;4974899;28;20036;-61
2023/08/15 09:49:30;;;;;;;3.55;1.90;;;;;;;;;;4974924;28;20031;-64
2023/08/15 09:51:59;;;;;;;3.60;1.90;;;;;;;;;;4992898;28;20105;-61
2023/08/15 09:54:25;;;;;;;;;;;;;;;;;;4994676;28;20030;-60
2023/08/15 09:56:51;;;;;;;2.88;1.80;;;;;;;;;;4984261;28;20354;-61
2023/08/15 09:59:17;;;;;;;2.72;1.80;;;;;;;;;;4974684;28;20472;-63
2023/08/15 10:01:46;;;;;;;4.65;2.20;;;;;;;;;;4974088;28;20034;-62
2023/08/15 10:04:13;;;;;;;3.65;2.20;;;;;;;;;;4974463;28;20488;-62
2023/08/15 10:06:42;;;;;;;7.28;2.45;;;;;;;;;;4974750;28;20022;-62
2023/08/15 10:09:09;;;;;;;3.00;2.05;;;;;;;;;;4974619;28;20106;-62
2023/08/15 10:11:42;;;;;;;4.95;2.05;;;;;;;;;;4974414;28;20086;-62
2023/08/15 10:14:09;;;;;;;3.85;2.58;;;;;;;;;;4974598;28;20027;-62
2023/08/15 10:16:35;;;;;;;4.82;2.10;;;;;;;;;;4974496;28;20031;-63
2023/08/15 10:19:01;;;;;;;5.13;2.22;;;;;;;;;;4974180;28;20027;-62
2023/08/15 10:21:49;;;;;;;4.07;1.95;;;;;;;;;;4974395;28;20031;-62
2023/08/15 10:24:14;;;;;;;3.45;2.30;;;;;;;;;;4973990;28;20070;-63
2023/08/15 10:26:40;;;;;;;2.70;1.90;;;;;;;;;;4974237;28;20065;-63
2023/08/15 10:29:05;;;;;;;3.15;2.17;;;;;;;;;;4973785;28;20474;-62
2023/08/15 10:31:35;;;;;;;4.18;2.38;;;;;;;;;;4973906;28;20396;-62
2023/08/15 10:34:07;;;;;;;4.55;2.00;;;;;;;;;;4974165;28;20023;-62
2023/08/15 10:36:33;;;;;;;3.83;2.05;;;;;;;;;;4991222;28;20383;-63
2023/08/15 10:39:05;;;;;;;2.50;1.92;;;;;;;;;;4993519;28;20035;-63
2023/08/15 10:41:32;;;;;;;3.90;2.10;;;;;;;;;;4992419;28;20030;-63
2023/08/15 10:44:04;;;;;;;4.07;2.08;;;;;;;;;;4985345;28;20034;-65
2023/08/15 10:46:30;;;;;;;7.93;2.40;;;;;;;;;;4974032;28;20033;-63
2023/08/15 10:49:09;;;;;;;3.60;2.53;;;;;;;;;;4974005;28;20120;-64
2023/08/15 10:51:36;;;;;;;;;;;;;;;;;;4989634;28;20122;-63
2023/08/15 10:54:04;;;;;;;3.83;2.33;;;;;;;;;;4993285;28;20417;-63
2023/08/15 10:56:37;;;;;;;4.50;2.40;;;;;;;;;;4986257;28;20743;-64
2023/08/15 10:59:07;;;;;;;6.13;2.40;;;;;;;;;;4973799;28;20027;-65
2023/08/15 11:01:32;;;;;;;4.40;2.53;;;;;;;;;;4973619;28;20030;-69
2023/08/15 11:03:58;;;;;;;4.90;2.20;;;;;;;;;;4973372;28;20038;-69
2023/08/15 11:06:24;;;;;;;4.47;2.30;;;;;;;;;;4973613;28;20079;-71
2023/08/15 11:08:52;;;;;;;2.97;2.20;;;;;;;;;;4973816;28;20077;-70
2023/08/15 11:11:17;;;;;;;3.42;2.40;;;;;;;;;;4973717;28;20026;-69
2023/08/15 11:13:46;;;;;;;3.65;2.50;;;;;;;;;;4973598;28;20045;-68
2023/08/15 11:16:17;;;;;;;3.80;2.50;;;;;;;;;;4973397;28;20046;-71
2023/08/15 11:18:44;;;;;;;3.40;2.38;;;;;;;;;;4973755;28;20492;-72
2023/08/15 11:21:12;;;;;;;6.95;2.40;;;;;;;;;;4973438;28;20038;-71
2023/08/15 11:23:38;;;;;;;5.80;2.70;;;;;;;;;;4973347;28;20089;-64
2023/08/15 11:26:06;;;;;;;3.60;2.20;;;;;;;;;;4973434;28;20062;-69
2023/08/15 11:28:32;;;;;;;3.60;2.53;;;;;;;;;;4973640;28;20094;-70
2023/08/15 11:30:58;;;;;;;5.10;2.47;;;;;;;;;;4973263;28;20122;-69
2023/08/15 11:33:24;;;;;;;3.53;2.40;;;;;;;;;;4973514;28;20038;-63
2023/08/15 11:35:50;;;;;;;5.57;2.60;;;;;;;;;;4984542;28;20034;-63
2023/08/15 11:38:19;;;;;;;5.47;2.60;;;;;;;;;;4993167;28;20495;-71
2023/08/15 11:40:44;;;;;;;6.40;3.13;;;;;;;;;;4996867;28;20128;-63
2023/08/15 11:43:10;;;;;;;3.60;2.78;;;;;;;;;;4995189;28;20053;-69
2023/08/15 11:45:39;;;;;;;5.43;2.80;;;;;;;;;;4977074;28;20027;-65
2023/08/15 11:48:06;;;;;;;4.93;2.88;;;;;;;;;;4977268;28;20031;-67
2023/08/15 11:50:33;;;;;;;5.30;3.30;;;;;;;;;;4984574;28;20023;-65
2023/08/15 11:52:59;;;;;;;5.15;3.20;;;;;;;;;;4996572;28;20045;-71
2023/08/15 11:55:25;;;;;;;4.10;3.40;;;;;;;;;;4996669;28;20033;-72
2023/08/15 11:57:52;;;;;;;6.40;3.47;;;;;;;;;;4978314;28;20035;-67
2023/08/15 12:00:20;;;;;;;5.68;3.42;;;;;;;;;;4976856;28;20033;-67
2023/08/15 12:02:48;;;;;;;5.70;3.40;;;;;;;;;;4977008;28;20074;-65
2023/08/15 12:05:18;;;;;;;4.88;2.90;;;;;;;;;;4977043;28;20119;-65
2023/08/15 12:07:44;;;;;;;;;;;;;;;;;;4977109;28;20035;-68
2023/08/15 12:10:12;;;;;;;6.82;3.47;;;;;;;;;;4976726;28;20390;-68
2023/08/15 12:12:45;;;;;;;5.72;3.50;;;;;;;;;;4976534;28;20037;-66
2023/08/15 12:15:12;;;;;;;5.55;3.38;;;;;;;;;;4976659;28;20029;-65
2023/08/15 12:17:38;;;;;;;5.95;3.45;;;;;;;;;;4976638;28;20537;-62
2023/08/15 12:20:11;;;;;;;5.53;3.65;;;;;;;;;;4976463;28;20091;-66
2023/08/15 12:22:39;;;;;;;6.47;3.28;;;;;;;;;;4975417;28;20122;-66
2023/08/15 12:25:07;;;;;;;4.55;3.38;;;;;;;;;;4976499;28;20065;-62
2023/08/15 12:27:36;;;;;;;4.38;3.30;;;;;;;;;;4976200;28;20034;-62
2023/08/15 12:30:03;;;;;;;3.60;3.15;;;;;;;;;;4976390;28;20045;-63
2023/08/15 12:32:29;;;;;;;6.05;3.50;;;;;;;;;;4976411;28;20031;-66
2023/08/15 12:34:54;;;;;;;4.13;3.00;;;;;;;;;;4979158;28;20030;-64
2023/08/15 12:37:20;;;;;;;5.60;3.60;;;;;;;;;;4996073;28;20027;-63
2023/08/15 12:39:45;;;;;;;4.60;3.17;;;;;;;;;;4995382;28;20026;-64
2023/08/15 12:42:12;;;;;;;5.72;3.75;;;;;;;;;;4995464;28;20161;-63
2023/08/15 12:44:38;;;;;;;7.22;4.03;;;;;;;;;;4982162;28;20364;-68
2023/08/15 12:47:03;;;;;;;5.57;3.83;;;;;;;;;;4975887;28;20045;-69
2023/08/15 12:49:29;;;;;;;5.88;4.10;;;;;;;;;;4976361;28;20109;-67
2023/08/15 12:51:55;;;;;;;5.70;3.60;;;;;;;;;;4992141;28;20030;-71
2023/08/15 12:54:20;;;;;;;5.97;3.60;;;;;;;;;;4995454;28;20556;-61
2023/08/15 12:56:46;;;;;;;6.18;3.78;;;;;;;;;;4984461;28;20031;-67
2023/08/15 12:59:11;;;;;;;7.70;4.10;;;;;;;;;;4975991;28;20026;-69
2023/08/15 13:01:37;;;;;;;5.65;3.70;;;;;;;;;;4976076;28;20027;-63
2023/08/15 13:04:03;;;;;;;7.82;3.67;;;;;;;;;;4974522;28;20046;-71
2023/08/15 13:06:28;;;;;;;4.90;3.53;;;;;;;;;;4974603;28;20077;-63
2023/08/15 13:08:54;;;;;;;5.63;3.70;;;;;;;;;;4975668;28;20022;-71
2023/08/15 13:11:19;;;;;;;4.57;3.83;;;;;;;;;;4975449;28;20445;-73
2023/08/15 13:13:45;;;;;;;5.90;3.92;;;;;;;;;;4975741;28;20023;-68
2023/08/15 13:16:11;;;;;;;5.68;3.60;;;;;;;;;;4975933;28;20444;-63
2023/08/15 13:18:36;;;;;;;5.75;3.47;;;;;;;;;;4975593;28;20030;-64
2023/08/15 13:21:02;;;;;;;5.68;3.75;;;;;;;;;;4975405;28;20069;-64
2023/08/15 13:23:29;;;;;;;4.95;3.72;;;;;;;;;;4975255;28;20048;-72
2023/08/15 13:25:55;;;;;;;5.20;4.22;;;;;;;;;;4974827;28;20046;-72
2023/08/15 13:28:20;;;;;;;6.25;3.90;;;;;;;;;;4975491;28;20031;-66
2023/08/15 13:30:47;;;;;;;6.03;3.50;;;;;;;;;;4975366;28;20033;-63
2023/08/15 13:33:13;;;;;;;6.32;3.83;;;;;;;;;;4975308;28;20088;-71
2023/08/15 13:35:39;;;;;;;5.88;3.92;;;;;;;;;;4984828;28;20383;-71
2023/08/15 13:38:05;;;;;;;6.38;4.30;;;;;;;;;;4994484;28;20026;-64
2023/08/15 13:40:30;;;;;;;7.50;4.25;;;;;;;;;;4994327;28;20045;-63
2023/08/15 13:42:59;;;;;;;5.97;4.30;;;;;;;;;;4994405;28;20081;-66
2023/08/15 13:45:25;;;;;;;5.78;3.40;;;;;;;;;;4955716;28;20094;-69
2023/08/15 13:47:50;;;;;;;4.68;3.67;;;;;;;;;;4955471;28;20024;-63
2023/08/15 13:50:16;;;;;;;5.32;4.07;;;;;;;;;;4965241;28;20093;-63
2023/08/15 13:52:41;;;;;;;5.78;3.60;;;;;;;;;;4993207;28;20408;-67
2023/08/15 13:55:08;;;;;;;4.22;3.80;;;;;;;;;;4994093;28;20105;-66
2023/08/15 13:57:33;;;;;;;6.05;3.70;;;;;;;;;;4978378;28;20369;-69
2023/08/15 13:59:59;;;;;;;8.73;4.22;;;;;;;;;;4974656;28;20090;-65
2023/08/15 14:02:24;;;;;;;8.93;4.00;;;;;;;;;;4974583;28;20368;-66
2023/08/15 14:04:49;;;;;;;4.97;3.95;;;;;;;;;;4974622;28;20027;-65
2023/08/15 14:07:15;;;;;;;5.78;4.22;;;;;;;;;;4974801;28;20023;-65
2023/08/15 14:09:40;;;;;;;5.78;4.03;;;;;;;;;;4972839;28;20030;-67
2023/08/15 14:12:06;;;;;;;8.57;4.15;;;;;;;;;;4974275;28;20038;-63
2023/08/15 14:14:31;;;;;;;8.20;4.55;;;;;;;;;;4974559;28;20069;-65
2023/08/15 14:16:57;;;;;;;5.88;4.22;;;;;;;;;;4974208;28;20030;-69
2023/08/15 14:19:22;;;;;;;6.25;4.72;;;;;;;;;;4974329;28;20031;-67
2023/08/15 14:21:48;;;;;;;5.72;4.35;;;;;;;;;;4974114;28;20169;-69
2023/08/15 14:24:13;;;;;;;6.72;3.70;;;;;;;;;;4973750;28;20134;-68
2023/08/15 14:26:39;;;;;;;4.38;3.97;;;;;;;;;;4974399;28;20033;-63
2023/08/15 14:29:04;;;;;;;6.13;3.83;;;;;;;;;;4974279;28;20034;-63
2023/08/15 14:31:31;;;;;;;4.53;3.92;;;;;;;;;;4974098;28;20022;-63
2023/08/15 14:33:56;;;;;;;5.50;4.00;;;;;;;;;;4973997;28;20035;-63
2023/08/15 14:36:22;;;;;;;7.03;4.38;;;;;;;;;;4989449;28;20447;-69
2023/08/15 14:38:47;;;;;;;6.30;4.53;;;;;;;;;;4979190;28;20027;-72
2023/08/15 14:41:12;;;;;;;4.75;4.25;;;;;;;;;;4974276;28;20110;-63